This is the latest recevied weather packets stored in our database for station/object N8SDR. If no packets are shown the sender has not sent any weather packets the latest 10 day(s).
| Time | Temp. | Humidity | Pressure | Rain* | Wind** | Luminosity | Snow |
|---|---|---|---|---|---|---|---|
| 1778180475 | 15.56° C | 42% | 1011.1 hPa | 0 mm | - | 731 W/m² | - |
| 1778180173 | 15.56° C | 42% | 1011 hPa | 0 mm | - | 764 W/m² | - |
| 1778179869 | 15° C | 46% | 1011.2 hPa | 0 mm | - | 749 W/m² | - |
| 1778179567 | 15.56° C | 45% | 1011.2 hPa | 0 mm | - | 734 W/m² | - |
| 1778179265 | 15° C | 47% | 1011.4 hPa | 0 mm | - | 757 W/m² | - |
| 1778178961 | 15° C | 47% | 1011.2 hPa | 0 mm | - | 764 W/m² | - |
| 1778178658 | 15° C | 50% | 1011.3 hPa | 0 mm | - | 742 W/m² | - |
| 1778178354 | 15° C | 48% | 1011.5 hPa | 0 mm | - | 792 W/m² | - |
| 1778178050 | 15° C | 48% | 1011.3 hPa | 0 mm | - | 843 W/m² | - |
| 1778177747 | 14.44° C | 47% | 1011.3 hPa | 0 mm | - | 796 W/m² | - |
| 1778177443 | 14.44° C | 49% | 1011.4 hPa | 0 mm | - | 773 W/m² | - |
| 1778177140 | 15° C | 47% | 1011.1 hPa | 0 mm | - | 786 W/m² | - |
| 1778176837 | 15° C | 46% | 1011.3 hPa | 0 mm | - | 807 W/m² | - |
| 1778176533 | 14.44° C | 50% | 1011.3 hPa | 0 mm | - | 752 W/m² | - |
| 1778176231 | 14.44° C | 48% | 1011.6 hPa | 0 mm | - | 789 W/m² | - |
| 1778175927 | 15° C | 49% | 1011.7 hPa | 0 mm | - | 754 W/m² | - |
| 1778175626 | 14.44° C | 48% | 1011.7 hPa | 0 mm | - | 744 W/m² | - |
| 1778175322 | 14.44° C | 49% | 1011.3 hPa | 0 mm | - | 732 W/m² | - |
| 1778175020 | 14.44° C | 50% | 1011.5 hPa | 0 mm | - | 730 W/m² | - |
| 1778174715 | 13.89° C | 49% | 1011.6 hPa | 0 mm | - | 753 W/m² | - |
| 1778174412 | 13.89° C | 48% | 1011.7 hPa | 0 mm | - | 765 W/m² | - |
| 1778174108 | 13.89° C | 48% | 1011.8 hPa | 0 mm | - | 758 W/m² | - |
| 1778173805 | 14.44° C | 49% | 1012.1 hPa | 0 mm | - | 757 W/m² | - |
| 1778173502 | 14.44° C | 51% | 1012 hPa | 0 mm | - | 767 W/m² | - |
| 1778173198 | 14.44° C | 48% | 1011.7 hPa | 0 mm | - | 779 W/m² | - |
* Rain latest hour (hover to see other rain measurements)
** Current wind speed in m/s (hover to see current wind gust speed)